Time;durP1;ratioP1;P1;durP2;ratioP2;P2;SDS_P1;SDS_P2;PMS_P1;PMS_P2;Temp;Humidity;BMP_temperature;BMP_pressure;BME280_temperature;BME280_humidity;BME280_pressure;Samples;Min_cycle;Max_cycle;Signal;HPM_P1;HPM_P2
2023/05/28 00:01:06;;;;;;;11.02;4.40;;;19.40;65.90;;;;;;5076793;28;20407;-77
2023/05/28 00:03:32;;;;;;;13.07;4.95;;;19.20;67.00;;;;;;5076290;28;20082;-77
2023/05/28 00:05:58;;;;;;;10.32;4.07;;;19.10;67.70;;;;;;5060733;28;20047;-77
2023/05/28 00:08:25;;;;;;;11.40;4.53;;;19.10;68.10;;;;;;5094275;28;20032;-77
2023/05/28 00:10:51;;;;;;;13.77;4.20;;;19.00;68.30;;;;;;5076716;28;20039;-76
2023/05/28 00:13:17;;;;;;;8.25;3.38;;;18.90;68.70;;;;;;5059593;28;20052;-76
2023/05/28 00:15:44;;;;;;;10.38;3.78;;;18.90;68.70;;;;;;5094564;28;20407;-77
2023/05/28 00:18:11;;;;;;;11.32;3.90;;;19.00;68.90;;;;;;5077167;28;20032;-76
2023/05/28 00:20:38;;;;;;;13.23;4.00;;;18.90;69.30;;;;;;5076549;28;20028;-76
2023/05/28 00:23:04;;;;;;;13.48;4.00;;;18.80;69.60;;;;;;5059406;28;20032;-76
2023/05/28 00:25:29;;;;;;;12.23;4.05;;;18.80;69.70;;;;;;5076446;28;20150;-76
2023/05/28 00:27:55;;;;;;;12.70;4.30;;;18.90;69.90;;;;;;5059305;28;20064;-77
2023/05/28 00:30:23;;;;;;;12.70;4.40;;;18.90;70.30;;;;;;5075983;28;20468;-76
2023/05/28 00:32:49;;;;;;;11.68;3.80;;;18.90;70.10;;;;;;5094506;28;20031;-76
2023/05/28 00:35:14;;;;;;;15.55;4.97;;;18.90;70.10;;;;;;5093959;28;20399;-76
2023/05/28 00:37:40;;;;;;;13.35;3.58;;;19.00;70.60;;;;;;5059255;28;20107;-78
2023/05/28 00:40:07;;;;;;;9.95;3.83;;;18.90;71.00;;;;;;5075750;28;20027;-76
2023/05/28 00:42:33;;;;;;;11.27;3.67;;;18.90;70.80;;;;;;5059087;28;20036;-76
2023/05/28 00:45:00;;;;;;;8.10;3.10;;;18.90;70.80;;;;;;5058901;28;20035;-76
2023/05/28 00:47:26;;;;;;;7.85;3.17;;;19.00;70.70;;;;;;5076422;28;20537;-76
2023/05/28 00:49:54;;;;;;;9.77;3.15;;;19.00;70.50;;;;;;5058753;28;20044;-76
2023/05/28 00:52:21;;;;;;;10.20;3.60;;;19.00;70.40;;;;;;5075731;28;20365;-77
2023/05/28 00:54:47;;;;;;;15.52;4.13;;;19.00;70.50;;;;;;5060059;28;20460;-77
2023/05/28 00:57:14;;;;;;;11.75;4.25;;;19.00;71.20;;;;;;5094236;28;20071;-77
2023/05/28 00:59:42;;;;;;;10.82;3.50;;;18.90;71.70;;;;;;5075643;28;20473;-76
2023/05/28 01:02:08;;;;;;;12.23;4.60;;;18.90;71.70;;;;;;5075885;28;20051;-76
2023/05/28 01:04:34;;;;;;;12.20;4.45;;;18.80;72.40;;;;;;5093762;28;20029;-76
2023/05/28 01:07:01;;;;;;;11.13;3.97;;;18.70;73.40;;;;;;5059453;28;20479;-76
2023/05/28 01:09:27;;;;;;;18.40;6.10;;;18.60;73.70;;;;;;5075570;28;20040;-77
2023/05/28 01:11:54;;;;;;;16.27;5.45;;;18.50;74.70;;;;;;5073761;28;20028;-80
2023/05/28 01:14:20;;;;;;;11.18;4.13;;;18.40;75.00;;;;;;5022872;28;20052;-77
2023/05/28 01:16:49;;;;;;;18.35;5.10;;;18.30;75.50;;;;;;5039355;28;20033;-77
2023/05/28 01:19:21;;;;;;;12.32;4.18;;;18.30;75.50;;;;;;5039374;28;20028;-77
2023/05/28 01:21:54;;;;;;;10.60;4.05;;;18.30;75.10;;;;;;5077544;28;20469;-77
2023/05/28 01:24:20;;;;;;;18.00;4.78;;;18.30;75.30;;;;;;5060239;28;20028;-77
2023/05/28 01:26:46;;;;;;;14.88;5.10;;;18.30;75.80;;;;;;5059496;28;20392;-77
2023/05/28 01:29:16;;;;;;;11.85;3.95;;;18.20;76.20;;;;;;5043759;28;20461;-78
2023/05/28 01:31:42;;;;;;;13.75;4.68;;;18.20;76.20;;;;;;5077654;28;20115;-78
2023/05/28 01:34:09;;;;;;;14.02;5.15;;;18.10;76.70;;;;;;5076848;28;20112;-77
2023/05/28 01:36:38;;;;;;;17.95;6.13;;;18.00;77.40;;;;;;5060259;28;20083;-77
2023/05/28 01:39:04;;;;;;;11.77;4.30;;;17.90;78.00;;;;;;5059483;28;20445;-76
2023/05/28 01:41:30;;;;;;;13.93;4.32;;;17.80;77.90;;;;;;5043677;28;20029;-78
2023/05/28 01:43:57;;;;;;;14.05;4.75;;;17.80;78.50;;;;;;5059556;28;20033;-78
2023/05/28 01:46:24;;;;;;;12.43;4.53;;;17.70;78.50;;;;;;5077102;28;20078;-77
2023/05/28 01:48:50;;;;;;;14.82;4.43;;;17.70;78.60;;;;;;5076751;28;20067;-77
2023/05/28 01:51:25;;;;;;;10.90;4.18;;;17.80;78.20;;;;;;5058860;28;20056;-77
2023/05/28 01:53:51;;;;;;;11.15;4.38;;;17.80;78.00;;;;;;5059933;28;20032;-77
2023/05/28 01:56:17;;;;;;;14.30;4.68;;;18.00;77.70;;;;;;5059295;28;20029;-77
2023/05/28 01:58:43;;;;;;;12.75;5.20;;;18.00;77.40;;;;;;5076943;28;20024;-78
2023/05/28 02:01:20;;;;;;;10.70;4.75;;;18.00;77.40;;;;;;5058936;28;20032;-77
2023/05/28 02:03:46;;;;;;;12.18;5.00;;;18.10;78.20;;;;;;5059621;28;20021;-77
2023/05/28 02:06:12;;;;;;;15.98;5.60;;;17.90;77.80;;;;;;5042358;28;20499;-78
2023/05/28 02:08:38;;;;;;;16.90;5.53;;;17.80;78.40;;;;;;5042227;28;20404;-77
2023/05/28 02:11:03;;;;;;;18.92;5.00;;;17.80;78.60;;;;;;5076279;28;20036;-78
2023/05/28 02:13:31;;;;;;;10.55;4.65;;;17.70;79.30;;;;;;5057287;28;20056;-77
2023/05/28 02:15:56;;;;;;;10.02;3.85;;;17.70;78.50;;;;;;5079072;28;20052;-77
2023/05/28 02:18:22;;;;;;;10.98;3.75;;;17.80;78.00;;;;;;5096806;28;20067;-77
2023/05/28 02:20:48;;;;;;;16.45;5.00;;;17.90;77.60;;;;;;5061928;28;20083;-78
2023/05/28 02:23:13;;;;;;;13.98;4.55;;;18.00;77.60;;;;;;5045259;28;20437;-78
2023/05/28 02:25:39;;;;;;;13.32;4.85;;;17.90;77.60;;;;;;5079091;28;20057;-77
2023/05/28 02:28:05;;;;;;;10.65;4.20;;;17.90;77.80;;;;;;5062091;28;20036;-77
2023/05/28 02:30:30;;;;;;;8.02;3.50;;;17.80;77.70;;;;;;5079009;28;20461;-77
2023/05/28 02:32:56;;;;;;;11.93;4.28;;;18.00;77.40;;;;;;5076717;28;20088;-77
2023/05/28 02:35:23;;;;;;;14.07;4.72;;;18.00;77.10;;;;;;5078471;28;20036;-77
2023/05/28 02:37:49;;;;;;;13.68;4.60;;;17.90;77.40;;;;;;5078785;28;20071;-77
2023/05/28 02:40:15;;;;;;;12.75;4.78;;;17.90;77.50;;;;;;5096465;28;20024;-77
2023/05/28 02:42:41;;;;;;;14.60;4.60;;;17.90;77.40;;;;;;5096376;28;20338;-79
2023/05/28 02:45:07;;;;;;;15.63;4.82;;;18.00;77.40;;;;;;5078102;28;20024;-77
2023/05/28 02:47:32;;;;;;;11.98;4.72;;;17.90;77.70;;;;;;5061330;28;20032;-77
2023/05/28 02:49:58;;;;;;;10.90;4.57;;;17.90;77.80;;;;;;5078321;28;20067;-79
2023/05/28 02:52:24;;;;;;;18.58;5.72;;;17.90;77.80;;;;;;5095781;28;20492;-78
2023/05/28 02:54:49;;;;;;;17.75;6.25;;;17.90;78.50;;;;;;5095966;28;20370;-76
2023/05/28 02:57:15;;;;;;;17.85;5.72;;;17.70;79.00;;;;;;5077911;28;20435;-79
2023/05/28 02:59:41;;;;;;;16.85;5.60;;;17.50;79.50;;;;;;5078319;28;20062;-80
2023/05/28 03:02:06;;;;;;;10.65;4.03;;;17.40;79.90;;;;;;5078347;28;20516;-78
2023/05/28 03:04:32;;;;;;;17.23;6.30;;;17.40;80.10;;;;;;5078183;28;20401;-79
2023/05/28 03:06:58;;;;;;;13.13;4.40;;;17.40;80.10;;;;;;5095738;28;20047;-79
2023/05/28 03:09:23;;;;;;;7.13;3.08;;;17.40;80.10;;;;;;5060936;28;20127;-78
2023/05/28 03:11:49;;;;;;;8.38;3.42;;;17.40;79.80;;;;;;5059136;28;20431;-78
2023/05/28 03:14:15;;;;;;;7.60;2.83;;;17.50;79.30;;;;;;5057999;28;20033;-79
2023/05/28 03:16:41;;;;;;;10.18;3.67;;;17.60;78.90;;;;;;5057736;28;20033;-78
2023/05/28 03:19:06;;;;;;;11.65;4.50;;;17.70;79.30;;;;;;5041724;28;20334;-78
2023/05/28 03:21:32;;;;;;;16.27;5.57;;;17.70;78.40;;;;;;5057367;28;20029;-79
2023/05/28 03:23:58;;;;;;;10.32;4.10;;;17.80;78.60;;;;;;5074889;28;20017;-78
2023/05/28 03:26:23;;;;;;;10.85;4.10;;;17.70;78.60;;;;;;5040969;28;20124;-78
2023/05/28 03:28:49;;;;;;;17.08;6.45;;;17.60;78.90;;;;;;5040835;28;20080;-75
2023/05/28 03:31:14;;;;;;;9.27;3.65;;;17.60;79.10;;;;;;5057338;28;20395;-76
2023/05/28 03:33:40;;;;;;;13.25;5.43;;;17.60;79.20;;;;;;5057319;28;20561;-76
2023/05/28 03:36:06;;;;;;;11.75;4.30;;;17.60;79.00;;;;;;5041054;28;20048;-76
2023/05/28 03:38:32;;;;;;;16.73;5.90;;;17.60;79.00;;;;;;5057065;28;20032;-76
2023/05/28 03:40:58;;;;;;;19.15;6.13;;;17.70;79.20;;;;;;5040198;28;20029;-77
2023/05/28 03:43:24;;;;;;;18.08;5.78;;;17.60;79.70;;;;;;5056333;28;20448;-76
2023/05/28 03:45:50;;;;;;;16.30;5.65;;;17.40;80.10;;;;;;5057049;28;20056;-77
2023/05/28 03:48:15;;;;;;;16.73;6.80;;;17.30;80.30;;;;;;5074838;28;20089;-76
2023/05/28 03:50:41;;;;;;;13.88;5.03;;;17.30;80.70;;;;;;5074784;28;20115;-78
2023/05/28 03:53:07;;;;;;;12.80;4.90;;;17.20;80.70;;;;;;5040158;28;20032;-76
2023/05/28 03:55:33;;;;;;;13.77;4.88;;;17.20;80.80;;;;;;5074397;28;20043;-76
2023/05/28 03:57:59;;;;;;;12.20;4.65;;;17.30;80.80;;;;;;5074622;28;20078;-76
2023/05/28 04:00:24;;;;;;;12.60;5.10;;;17.30;80.70;;;;;;5039772;28;20025;-76
2023/05/28 04:02:50;;;;;;;15.15;4.63;;;17.40;80.50;;;;;;5039985;28;20025;-77
2023/05/28 04:05:16;;;;;;;12.18;4.00;;;17.40;80.30;;;;;;5039903;28;20033;-77
2023/05/28 04:07:41;;;;;;;13.60;4.88;;;17.50;80.20;;;;;;5040107;28;20040;-77
2023/05/28 04:10:08;;;;;;;10.95;4.18;;;17.50;79.90;;;;;;5039828;28;20127;-77
2023/05/28 04:12:33;;;;;;;9.45;4.03;;;17.60;79.80;;;;;;5082026;28;20052;-78
2023/05/28 04:15:00;;;;;;;13.35;4.32;;;17.60;79.60;;;;;;5095142;28;20364;-79
2023/05/28 04:17:27;;;;;;;12.38;4.22;;;17.70;79.70;;;;;;5076906;28;20028;-78
2023/05/28 04:19:53;;;;;;;14.60;5.53;;;17.70;79.60;;;;;;5076630;28;20024;-78
2023/05/28 04:22:20;;;;;;;12.98;5.32;;;17.70;79.70;;;;;;5076445;28;20036;-78
2023/05/28 04:24:47;;;;;;;7.85;4.07;;;17.70;79.70;;;;;;5060595;28;20032;-78
2023/05/28 04:27:13;;;;;;;12.00;3.92;;;17.70;79.70;;;;;;5060253;28;20059;-78
2023/05/28 04:29:39;;;;;;;11.95;4.18;;;17.70;79.60;;;;;;5094600;28;20036;-78
2023/05/28 04:32:08;;;;;;;13.77;4.65;;;17.70;79.50;;;;;;5094214;28;20066;-77
2023/05/28 04:34:34;;;;;;;13.48;4.50;;;17.80;79.50;;;;;;5076775;28;20166;-77
2023/05/28 04:37:00;;;;;;;10.40;4.70;;;17.80;79.50;;;;;;5076112;28;20077;-78
2023/05/28 04:39:26;;;;;;;13.02;5.00;;;17.70;79.70;;;;;;5094486;28;20028;-77
2023/05/28 04:41:53;;;;;;;12.25;4.68;;;17.70;79.80;;;;;;5094430;28;20027;-78
2023/05/28 04:44:19;;;;;;;12.60;4.93;;;17.60;79.90;;;;;;5075878;28;20028;-78
2023/05/28 04:46:45;;;;;;;10.52;4.30;;;17.60;80.10;;;;;;5075969;28;20082;-79
2023/05/28 04:49:14;;;;;;;14.40;4.22;;;17.60;80.10;;;;;;5059804;28;20467;-78
2023/05/28 04:51:40;;;;;;;7.18;3.85;;;17.60;80.00;;;;;;5094248;28;20032;-78
2023/05/28 04:54:07;;;;;;;13.05;5.18;;;17.70;80.00;;;;;;5075554;28;20074;-77
2023/05/28 04:56:32;;;;;;;13.82;5.20;;;17.70;80.00;;;;;;5093563;28;20074;-77
2023/05/28 04:58:58;;;;;;;16.55;5.45;;;17.60;80.30;;;;;;5075822;28;20032;-78
2023/05/28 05:01:24;;;;;;;18.05;7.53;;;17.50;80.40;;;;;;5075911;28;20048;-78
2023/05/28 05:03:50;;;;;;;15.35;5.93;;;17.30;81.20;;;;;;5093932;28;20024;-78
2023/05/28 05:06:16;;;;;;;13.15;4.55;;;17.10;82.00;;;;;;5076475;28;20059;-78
2023/05/28 05:08:42;;;;;;;17.73;6.13;;;17.00;82.40;;;;;;5059819;28;20426;-79
2023/05/28 05:11:08;;;;;;;15.55;6.50;;;17.00;82.70;;;;;;5093588;28;20495;-77
2023/05/28 05:13:34;;;;;;;13.80;5.32;;;16.90;83.00;;;;;;5093452;28;20048;-78
2023/05/28 05:15:59;;;;;;;18.45;6.38;;;16.90;83.30;;;;;;5075554;28;20441;-78
2023/05/28 05:18:25;;;;;;;16.90;6.50;;;16.90;83.30;;;;;;5075773;28;20380;-78
2023/05/28 05:20:51;;;;;;;13.48;6.13;;;16.80;83.80;;;;;;5094104;28;20441;-78
2023/05/28 05:23:16;;;;;;;14.80;5.80;;;16.80;83.70;;;;;;5093703;28;20052;-78
2023/05/28 05:25:43;;;;;;;8.10;3.78;;;16.90;83.70;;;;;;5093972;28;20384;-79
2023/05/28 05:28:09;;;;;;;21.52;6.68;;;17.00;83.40;;;;;;5093221;28;20032;-77
2023/05/28 05:30:35;;;;;;;11.45;4.45;;;17.10;83.50;;;;;;5058934;28;20039;-78
2023/05/28 05:33:01;;;;;;;12.85;5.22;;;17.10;83.50;;;;;;5075735;28;20113;-78
2023/05/28 05:35:27;;;;;;;14.00;5.07;;;17.10;83.40;;;;;;5058970;28;20495;-77
2023/05/28 05:37:52;;;;;;;16.80;6.55;;;17.30;83.20;;;;;;5093429;28;20032;-78
2023/05/28 05:40:18;;;;;;;15.68;5.88;;;17.30;83.20;;;;;;5075230;28;20032;-78
2023/05/28 05:42:44;;;;;;;19.85;6.93;;;17.20;83.40;;;;;;5075939;28;20028;-79
2023/05/28 05:45:10;;;;;;;20.50;6.88;;;17.10;83.90;;;;;;5075136;28;20391;-77
2023/05/28 05:47:37;;;;;;;17.08;6.03;;;17.10;84.20;;;;;;5058727;28;20035;-78
2023/05/28 05:50:04;;;;;;;19.65;6.30;;;17.00;84.30;;;;;;5075519;28;20060;-77
2023/05/28 05:52:30;;;;;;;23.23;6.85;;;17.00;84.60;;;;;;5075288;28;20032;-78
2023/05/28 05:54:55;;;;;;;20.60;7.03;;;16.90;84.70;;;;;;5075387;28;20526;-77
2023/05/28 05:57:22;;;;;;;15.75;5.30;;;16.90;84.90;;;;;;5075505;28;20032;-78
2023/05/28 05:59:47;;;;;;;11.23;3.80;;;16.90;85.10;;;;;;5058676;28;20062;-78
2023/05/28 06:02:13;;;;;;;11.82;5.35;;;17.00;84.70;;;;;;5058213;28;20028;-79
2023/05/28 06:04:39;;;;;;;13.07;4.50;;;17.20;84.30;;;;;;5058377;28;20028;-77
2023/05/28 06:07:06;;;;;;;16.33;5.65;;;17.30;84.20;;;;;;5095730;28;20024;-78
2023/05/28 06:09:32;;;;;;;13.75;5.55;;;17.40;84.00;;;;;;5079039;28;20054;-78
2023/05/28 06:11:59;;;;;;;13.38;4.78;;;17.40;84.20;;;;;;5076900;28;20060;-78
2023/05/28 06:14:27;;;;;;;16.17;5.25;;;17.50;84.20;;;;;;5097242;28;20039;-78
2023/05/28 06:16:52;;;;;;;8.98;3.50;;;17.60;83.80;;;;;;5062903;28;20043;-78
2023/05/28 06:19:18;;;;;;;9.60;3.80;;;17.70;83.40;;;;;;5078745;28;20032;-78
2023/05/28 06:21:44;;;;;;;12.68;5.47;;;17.80;83.00;;;;;;5079122;28;20028;-78
2023/05/28 06:24:10;;;;;;;11.75;4.57;;;18.00;82.80;;;;;;5097168;28;20050;-77
2023/05/28 06:26:36;;;;;;;8.48;3.35;;;18.00;82.70;;;;;;5062720;28;20028;-78
2023/05/28 06:29:02;;;;;;;11.43;4.40;;;18.00;82.30;;;;;;5079065;28;20384;-78
2023/05/28 06:31:27;;;;;;;12.25;4.50;;;18.10;82.00;;;;;;5078868;28;20534;-78
2023/05/28 06:33:53;;;;;;;8.40;4.05;;;18.20;82.00;;;;;;5061771;28;20054;-78
2023/05/28 06:36:19;;;;;;;15.65;5.68;;;18.20;82.10;;;;;;5061752;28;20036;-78
2023/05/28 06:38:45;;;;;;;14.35;6.15;;;18.20;82.10;;;;;;5078261;28;20051;-78
2023/05/28 06:41:10;;;;;;;13.55;5.45;;;18.20;82.10;;;;;;5078422;28;20077;-77
2023/05/28 06:43:38;;;;;;;9.45;4.25;;;18.10;82.40;;;;;;5078298;28;20120;-78
2023/05/28 06:46:04;;;;;;;11.90;4.68;;;18.10;82.30;;;;;;5096509;28;20016;-77
2023/05/28 06:48:30;;;;;;;13.85;4.30;;;18.20;82.40;;;;;;5077699;28;20032;-77
2023/05/28 06:50:57;;;;;;;9.25;3.55;;;18.20;82.30;;;;;;5078580;28;20043;-78
2023/05/28 06:53:22;;;;;;;11.70;4.20;;;18.20;82.30;;;;;;5096172;28;20032;-77
2023/05/28 06:55:48;;;;;;;12.23;4.35;;;18.30;82.10;;;;;;5095826;28;20629;-78
2023/05/28 06:58:13;;;;;;;14.10;5.18;;;18.40;82.80;;;;;;5077953;28;20032;-78
2023/05/28 07:00:39;;;;;;;11.27;4.63;;;18.50;82.50;;;;;;5077571;28;20028;-77
2023/05/28 07:03:05;;;;;;;16.42;4.70;;;18.60;83.80;;;;;;5061168;28;20047;-78
2023/05/28 07:05:31;;;;;;;14.55;5.53;;;18.70;83.50;;;;;;5061050;28;20024;-77
2023/05/28 07:07:57;;;;;;;15.90;5.50;;;18.80;83.10;;;;;;5096080;28;20050;-77
2023/05/28 07:10:23;;;;;;;12.82;4.63;;;18.70;83.10;;;;;;5096408;28;20024;-77
2023/05/28 07:12:48;;;;;;;15.43;5.03;;;18.80;83.10;;;;;;5095611;28;20484;-78
2023/05/28 07:15:15;;;;;;;13.82;4.80;;;18.90;83.00;;;;;;5060970;28;20036;-78
2023/05/28 07:17:41;;;;;;;13.32;5.40;;;19.00;82.30;;;;;;5060469;28;20028;-78
2023/05/28 07:20:08;;;;;;;13.65;5.15;;;19.10;81.30;;;;;;5077691;28;20484;-78
2023/05/28 07:22:34;;;;;;;14.50;5.07;;;19.00;81.60;;;;;;5061231;28;20039;-77
2023/05/28 07:25:00;;;;;;;14.10;4.88;;;18.90;80.70;;;;;;5077155;28;20020;-77
2023/05/28 07:27:26;;;;;;;11.73;4.40;;;18.90;81.80;;;;;;5095760;28;20070;-78
2023/05/28 07:29:51;;;;;;;13.15;3.90;;;19.00;82.00;;;;;;5077302;28;20468;-78
2023/05/28 07:32:17;;;;;;;12.13;4.13;;;19.20;80.60;;;;;;5061270;28;20024;-78
2023/05/28 07:34:43;;;;;;;14.25;4.80;;;19.30;80.30;;;;;;5077561;28;20035;-80
2023/05/28 07:37:08;;;;;;;11.55;3.80;;;19.40;78.90;;;;;;5060600;28;20032;-80
2023/05/28 07:39:34;;;;;;;12.70;3.75;;;19.40;77.80;;;;;;5077673;28;20376;-78
2023/05/28 07:42:00;;;;;;;11.73;3.45;;;19.40;77.90;;;;;;5076807;28;20078;-77
2023/05/28 07:44:26;;;;;;;13.13;3.67;;;19.50;78.40;;;;;;5077497;28;20524;-78
2023/05/28 07:46:51;;;;;;;11.02;3.40;;;19.60;77.50;;;;;;5076716;28;20107;-77
2023/05/28 07:49:17;;;;;;;12.60;3.88;;;19.80;78.60;;;;;;5060171;28;20472;-78
2023/05/28 07:51:43;;;;;;;12.98;3.70;;;19.80;76.30;;;;;;5077041;28;20036;-79
2023/05/28 07:54:09;;;;;;;14.00;4.35;;;19.90;76.70;;;;;;5060126;28;20036;-78
2023/05/28 07:56:34;;;;;;;10.45;3.08;;;19.90;76.60;;;;;;5077297;28;20345;-75
2023/05/28 07:59:00;;;;;;;13.35;3.60;;;20.10;76.00;;;;;;5076549;28;20028;-77
2023/05/28 08:01:26;;;;;;;11.02;3.63;;;20.30;76.30;;;;;;5076480;28;20029;-76
2023/05/28 08:03:54;;;;;;;9.20;3.30;;;20.30;74.60;;;;;;5095088;28;20036;-76
2023/05/28 08:06:20;;;;;;;10.23;3.47;;;20.50;75.60;;;;;;5060267;28;20032;-76
2023/05/28 08:08:46;;;;;;;13.02;3.35;;;20.50;74.10;;;;;;5059978;28;20054;-77
2023/05/28 08:11:13;;;;;;;9.27;3.50;;;20.50;74.30;;;;;;5060253;28;20469;-76
2023/05/28 08:13:40;;;;;;;11.57;3.10;;;20.50;73.90;;;;;;5076212;28;20052;-76
2023/05/28 08:16:05;;;;;;;9.65;3.30;;;20.50;73.40;;;;;;5076371;28;20073;-76
2023/05/28 08:18:31;;;;;;;10.57;3.40;;;20.60;74.10;;;;;;5076321;28;20040;-76
2023/05/28 08:20:57;;;;;;;9.95;3.30;;;20.70;73.40;;;;;;5094449;28;20032;-75
2023/05/28 08:23:22;;;;;;;9.20;2.92;;;20.80;73.00;;;;;;5060174;28;20028;-76
2023/05/28 08:25:48;;;;;;;10.40;2.90;;;20.90;73.80;;;;;;5076251;28;20036;-76
2023/05/28 08:28:17;;;;;;;11.43;2.78;;;21.10;73.00;;;;;;5076241;28;20111;-77
2023/05/28 08:30:43;;;;;;;9.75;3.15;;;21.30;72.30;;;;;;5093576;28;20039;-76
2023/05/28 08:33:08;;;;;;;11.18;3.28;;;21.40;70.40;;;;;;5059376;28;20032;-76
2023/05/28 08:35:34;;;;;;;7.60;2.90;;;21.50;70.60;;;;;;5059618;28;20031;-76
2023/05/28 08:38:00;;;;;;;8.75;2.90;;;21.60;70.60;;;;;;5075837;28;20062;-76
2023/05/28 08:40:27;;;;;;;10.52;2.97;;;21.70;69.60;;;;;;5094309;28;20065;-76
2023/05/28 08:42:52;;;;;;;10.52;4.05;;;21.70;70.20;;;;;;5093875;28;20032;-76
2023/05/28 08:45:18;;;;;;;12.30;3.63;;;21.70;70.60;;;;;;5059580;28;20039;-76
2023/05/28 08:47:45;;;;;;;10.27;3.10;;;21.90;70.70;;;;;;5076017;28;20047;-78
2023/05/28 08:50:14;;;;;;;6.53;2.83;;;21.90;69.60;;;;;;5075700;28;20081;-76
2023/05/28 08:52:42;;;;;;;10.55;3.35;;;22.10;69.00;;;;;;5075479;28;20020;-76
2023/05/28 08:55:08;;;;;;;9.48;3.33;;;22.20;68.20;;;;;;5075809;28;20032;-76
2023/05/28 08:57:34;;;;;;;9.90;3.30;;;22.30;67.90;;;;;;5076086;28;20078;-76
2023/05/28 09:00:00;;;;;;;8.38;3.38;;;22.30;67.10;;;;;;5093860;28;20035;-77
2023/05/28 09:02:26;;;;;;;10.05;2.97;;;22.50;67.30;;;;;;5059096;28;20388;-76
2023/05/28 09:04:53;;;;;;;11.43;3.13;;;22.60;67.60;;;;;;5059490;28;20032;-76
2023/05/28 09:07:18;;;;;;;9.88;3.40;;;22.60;65.90;;;;;;5059131;28;20395;-77
2023/05/28 09:09:45;;;;;;;11.52;3.90;;;22.80;66.80;;;;;;5075928;28;20081;-77
2023/05/28 09:12:20;;;;;;;14.43;3.55;;;22.80;67.90;;;;;;5093492;28;20111;-76
2023/05/28 09:14:51;;;;;;;10.52;3.13;;;22.90;66.30;;;;;;5093627;28;20035;-77
2023/05/28 09:17:16;;;;;;;10.93;3.80;;;23.00;65.60;;;;;;5093477;28;20036;-76
2023/05/28 09:19:51;;;;;;;8.45;3.17;;;22.90;64.70;;;;;;5093371;28;20490;-76
2023/05/28 09:22:18;;;;;;;9.38;3.03;;;22.90;66.20;;;;;;5076028;28;20024;-76
2023/05/28 09:24:48;;;;;;;11.98;3.75;;;22.90;65.00;;;;;;5075565;28;20031;-77
2023/05/28 09:27:19;;;;;;;10.60;3.35;;;23.00;64.30;;;;;;5093738;28;20029;-78
2023/05/28 09:29:44;;;;;;;9.38;3.33;;;22.90;63.30;;;;;;5075758;28;20054;-78
2023/05/28 09:32:10;;;;;;;9.77;4.00;;;22.90;63.10;;;;;;5076194;28;20433;-77
2023/05/28 09:34:42;;;;;;;13.20;3.65;;;22.90;64.30;;;;;;5075996;28;20367;-77
2023/05/28 09:37:08;;;;;;;10.25;2.92;;;23.00;64.80;;;;;;5093679;28;20119;-77
2023/05/28 09:39:34;;;;;;;12.23;3.25;;;23.10;65.10;;;;;;5058564;28;20174;-77
2023/05/28 09:42:08;;;;;;;9.85;2.83;;;23.10;63.60;;;;;;5061206;28;20039;-77
2023/05/28 09:44:39;;;;;;;8.90;3.30;;;23.10;63.50;;;;;;5080217;28;20107;-77
2023/05/28 09:47:15;;;;;;;8.48;3.15;;;23.20;64.10;;;;;;5079176;28;20042;-77
2023/05/28 09:49:44;;;;;;;7.93;3.10;;;23.30;63.80;;;;;;5097595;28;20039;-77
2023/05/28 09:52:21;;;;;;;12.10;3.60;;;23.30;64.20;;;;;;5097012;28;20024;-78
2023/05/28 09:54:54;;;;;;;11.52;3.92;;;23.30;63.90;;;;;;5078805;28;20031;-77
2023/05/28 09:57:26;;;;;;;10.35;3.35;;;23.40;64.40;;;;;;5097264;28;20169;-78
2023/05/28 09:59:56;;;;;;;13.20;3.33;;;23.40;63.20;;;;;;5097397;28;20099;-78
2023/05/28 10:02:34;;;;;;;11.73;4.03;;;23.50;63.60;;;;;;5078879;28;20085;-76
2023/05/28 10:05:06;;;;;;;15.82;3.67;;;23.40;63.90;;;;;;5097701;28;20055;-77
2023/05/28 10:07:34;;;;;;;14.55;3.75;;;23.40;64.30;;;;;;5078815;28;20028;-77
2023/05/28 10:10:03;;;;;;;11.02;3.95;;;23.20;65.40;;;;;;5062537;28;20361;-77
2023/05/28 10:12:30;;;;;;;11.13;3.47;;;23.10;65.10;;;;;;5073889;28;20084;-77
2023/05/28 10:14:57;;;;;;;11.13;3.53;;;23.00;66.00;;;;;;5058998;28;20061;-77
2023/05/28 10:17:23;;;;;;;11.32;4.00;;;22.90;66.60;;;;;;5077063;28;20083;-77
2023/05/28 10:19:48;;;;;;;13.50;3.90;;;23.10;66.00;;;;;;5041807;28;20033;-78
2023/05/28 10:22:15;;;;;;;10.88;3.20;;;23.10;65.60;;;;;;5076147;28;20112;-77
2023/05/28 10:24:42;;;;;;;12.40;4.20;;;23.10;66.40;;;;;;5077259;28;20040;-77
2023/05/28 10:27:13;;;;;;;10.70;3.88;;;23.10;66.10;;;;;;5075901;28;20079;-77
2023/05/28 10:29:44;;;;;;;8.35;3.60;;;23.10;67.30;;;;;;5076617;28;20091;-77
2023/05/28 10:32:13;;;;;;;11.90;3.75;;;23.10;66.00;;;;;;5058733;28;20028;-77
2023/05/28 10:34:39;;;;;;;11.13;3.60;;;23.30;66.80;;;;;;5076187;28;20036;-77
2023/05/28 10:37:09;;;;;;;10.25;3.40;;;23.40;64.70;;;;;;5057875;28;20435;-77
2023/05/28 10:39:41;;;;;;;9.10;3.42;;;23.50;65.50;;;;;;5058952;28;20441;-76
2023/05/28 10:42:14;;;;;;;11.32;3.75;;;23.60;65.40;;;;;;5075993;28;20029;-77
2023/05/28 10:45:12;;;;;;;9.77;3.53;;;23.80;65.40;;;;;;5076262;28;20040;-78
2023/05/28 10:47:38;;;;;;;13.05;4.10;;;24.00;64.80;;;;;;5058394;28;20469;-77
2023/05/28 10:50:15;;;;;;;10.32;3.25;;;24.10;63.40;;;;;;5057875;28;20520;-77
2023/05/28 10:52:40;;;;;;;10.48;3.40;;;24.10;65.00;;;;;;5040476;28;20040;-77
2023/05/28 10:55:09;;;;;;;9.20;3.50;;;24.10;62.80;;;;;;5057967;28;20028;-77
2023/05/28 10:57:43;;;;;;;10.15;3.72;;;24.20;64.00;;;;;;5074591;28;20500;-77
2023/05/28 11:00:18;;;;;;;9.77;3.33;;;24.20;62.80;;;;;;5057887;28;20036;-77
2023/05/28 11:02:47;;;;;;;7.13;2.95;;;24.00;62.70;;;;;;5058166;28;20025;-79
2023/05/28 11:05:13;;;;;;;16.10;3.15;;;23.90;62.80;;;;;;5057838;28;20025;-77
2023/05/28 11:07:40;;;;;;;12.32;3.63;;;23.80;63.20;;;;;;5057500;28;20039;-77
2023/05/28 11:10:08;;;;;;;9.43;3.20;;;23.70;63.80;;;;;;5057569;28;20036;-77
2023/05/28 11:12:39;;;;;;;12.55;3.40;;;23.80;63.80;;;;;;5057046;28;20024;-78
2023/05/28 11:15:06;;;;;;;10.18;3.20;;;23.90;63.80;;;;;;5077611;28;20044;-77
2023/05/28 11:17:40;;;;;;;9.93;3.42;;;24.00;64.00;;;;;;5077221;28;20032;-77
2023/05/28 11:20:16;;;;;;;8.73;3.22;;;24.00;63.70;;;;;;5095627;28;20111;-77
2023/05/28 11:22:41;;;;;;;11.77;3.53;;;24.20;62.60;;;;;;5062961;28;20361;-77
2023/05/28 11:25:09;;;;;;;12.40;3.97;;;24.20;63.40;;;;;;5060815;28;20034;-77
2023/05/28 11:27:37;;;;;;;12.50;4.18;;;24.10;63.50;;;;;;5078014;28;20036;-76
2023/05/28 11:30:08;;;;;;;9.13;3.55;;;24.00;63.60;;;;;;5095405;28;20029;-77
2023/05/28 11:32:34;;;;;;;12.10;3.65;;;24.10;63.60;;;;;;5095532;28;20028;-76
2023/05/28 11:35:01;;;;;;;8.70;2.92;;;24.30;63.10;;;;;;5061741;28;20040;-76
2023/05/28 11:37:28;;;;;;;10.77;3.35;;;24.40;63.80;;;;;;5094955;28;20028;-76
2023/05/28 11:39:56;;;;;;;10.48;3.45;;;24.60;62.30;;;;;;5095490;28;20032;-76
2023/05/28 11:42:24;;;;;;;7.70;2.97;;;24.60;60.50;;;;;;5076902;28;20024;-76
2023/05/28 11:44:53;;;;;;;8.15;3.10;;;24.40;60.10;;;;;;5094979;28;20028;-75
2023/05/28 11:47:20;;;;;;;8.23;2.70;;;24.40;60.10;;;;;;5076806;28;20087;-76
2023/05/28 11:49:47;;;;;;;10.30;3.40;;;24.50;61.40;;;;;;5077467;28;20405;-76
2023/05/28 11:52:17;;;;;;;10.07;3.10;;;24.70;60.30;;;;;;5094854;28;20368;-76
2023/05/28 11:54:45;;;;;;;9.95;2.67;;;24.70;59.30;;;;;;5094848;28;20028;-76
2023/05/28 11:57:17;;;;;;;9.98;3.40;;;24.60;59.40;;;;;;5077243;28;20054;-76
2023/05/28 12:00:00;;;;;;;9.68;2.92;;;24.70;60.20;;;;;;5095054;28;20369;-77
2023/05/28 12:02:26;;;;;;;9.35;3.35;;;24.80;59.70;;;;;;5094927;28;20035;-76
2023/05/28 12:05:02;;;;;;;11.23;3.80;;;24.90;60.30;;;;;;5094342;28;20024;-76
2023/05/28 12:07:32;;;;;;;8.80;2.90;;;24.90;58.90;;;;;;5059628;28;20032;-76
2023/05/28 12:10:08;;;;;;;11.63;3.97;;;25.00;58.30;;;;;;5094975;28;20067;-75
2023/05/28 12:12:42;;;;;;;11.23;3.25;;;25.00;58.10;;;;;;5094333;28;20023;-76
2023/05/28 12:15:08;;;;;;;8.80;2.90;;;25.00;59.00;;;;;;5056216;28;20055;-76
2023/05/28 12:17:38;;;;;;;10.32;3.30;;;24.90;59.30;;;;;;5056277;28;20036;-76
2023/05/28 12:20:32;;;;;;;6.70;3.15;;;24.80;58.10;;;;;;5056384;28;20044;-76
2023/05/28 12:23:02;;;;;;;10.02;3.53;;;24.70;58.90;;;;;;5074331;28;20028;-76
2023/05/28 12:25:28;;;;;;;10.45;3.40;;;24.60;59.40;;;;;;5074594;28;20063;-76
2023/05/28 12:27:54;;;;;;;8.90;3.13;;;24.60;59.80;;;;;;5056083;28;20052;-76
2023/05/28 12:30:19;;;;;;;10.35;3.40;;;24.60;58.70;;;;;;5056165;28;20028;-78
2023/05/28 12:32:45;;;;;;;9.75;2.92;;;24.60;59.10;;;;;;5056556;28;20099;-77
2023/05/28 12:35:10;;;;;;;7.80;2.63;;;24.80;58.70;;;;;;5073445;28;20388;-76
2023/05/28 12:37:36;;;;;;;7.72;2.65;;;24.80;58.70;;;;;;5039342;28;20469;-76